This is the latest recevied weather packets stored in our database for station/object DM8MH-13. If no packets are shown the sender has not sent any weather packets the latest 10 day(s).
| Time | Temp. | Humidity | Pressure | Rain* | Wind** | Luminosity | Snow |
|---|---|---|---|---|---|---|---|
| 1777986073 | 20° C | 71% | 1007.3 hPa | 0 mm | - | 762 W/m² | - |
| 1777985473 | 20.56° C | 68% | 1007.5 hPa | 0 mm | - | 637 W/m² | - |
| 1777984872 | 20.56° C | 72% | 1007.7 hPa | 0 mm | - | 369 W/m² | - |
| 1777984273 | 20° C | 73% | 1007.6 hPa | 0 mm | - | 684 W/m² | - |
| 1777983673 | 19.44° C | 74% | 1007.7 hPa | 0 mm | - | 631 W/m² | - |
| 1777983072 | 19.44° C | 75% | 1007.8 hPa | 0 mm | - | 405 W/m² | - |
| 1777982472 | 19.44° C | 74% | 1007.9 hPa | 0 mm | - | 395 W/m² | - |
| 1777981872 | 19.44° C | 75% | 1008 hPa | 0 mm | - | 327 W/m² | - |
| 1777981272 | 18.89° C | 76% | 1008 hPa | 0 mm | - | 400 W/m² | - |
| 1777980673 | 18.89° C | 77% | 1008.1 hPa | 0 mm | - | 357 W/m² | - |
| 1777980073 | 18.33° C | 76% | 1008.2 hPa | 0 mm | - | 349 W/m² | - |
| 1777979473 | 18.33° C | 77% | 1008.2 hPa | 0 mm | - | 390 W/m² | - |
| 1777978873 | 18.33° C | 76% | 1008.3 hPa | 0 mm | - | 343 W/m² | - |
| 1777978273 | 18.33° C | 75% | 1008.4 hPa | 0 mm | - | 412 W/m² | - |
| 1777977672 | 18.33° C | 74% | 1008.7 hPa | 0 mm | - | 364 W/m² | - |
| 1777977073 | 18.89° C | 73% | 1008.7 hPa | 0 mm | - | 372 W/m² | - |
| 1777976473 | 18.89° C | 76% | 1008.8 hPa | 0 mm | - | 272 W/m² | - |
| 1777975872 | 18.33° C | 78% | 1008.9 hPa | 0 mm | - | 292 W/m² | - |
| 1777975273 | 18.33° C | 79% | 1008.9 hPa | 0 mm | - | 343 W/m² | - |
| 1777974673 | 17.78° C | 81% | 1008.8 hPa | 0 mm | - | 345 W/m² | - |
| 1777974073 | 17.78° C | 83% | 1008.9 hPa | 0 mm | - | 295 W/m² | - |
| 1777973474 | 17.22° C | 85% | 1008.9 hPa | 0 mm | - | 285 W/m² | - |
| 1777972873 | 16.67° C | 85% | 1008.9 hPa | 0 mm | - | 233 W/m² | - |
| 1777972272 | 16.67° C | 86% | 1008.9 hPa | 0 mm | - | 162 W/m² | - |
| 1777971673 | 16.67° C | 86% | 1009 hPa | 0 mm | - | 156 W/m² | - |
* Rain latest hour (hover to see other rain measurements)
** Current wind speed in m/s (hover to see current wind gust speed)